createdAt,value
2023-01-06T00:00:06.459Z,6.8
2023-01-06T00:01:05.820Z,6.7
2023-01-06T00:02:05.765Z,6.8
2023-01-06T00:03:06.082Z,6.8
2023-01-06T00:04:06.191Z,6.8
2023-01-06T00:05:06.089Z,6.8
2023-01-06T00:06:06.561Z,6.8
2023-01-06T00:07:06.614Z,6.8
2023-01-06T00:08:06.390Z,6.8
2023-01-06T00:09:06.447Z,6
2023-01-06T00:10:06.214Z,6.8
2023-01-06T00:11:06.230Z,6.8
2023-01-06T00:12:06.506Z,6.7
2023-01-06T00:13:06.166Z,6.7
2023-01-06T00:14:06.423Z,6.7
2023-01-06T00:15:06.262Z,6.8
2023-01-06T00:16:06.228Z,6.8
2023-01-06T00:17:06.174Z,6.7
2023-01-06T00:18:06.202Z,6.7
2023-01-06T00:19:04.677Z,6.7
2023-01-06T00:20:06.353Z,6.7
2023-01-06T00:21:06.102Z,6.6
2023-01-06T00:22:06.398Z,6.7
2023-01-06T00:23:06.283Z,6.6
2023-01-06T00:24:06.552Z,6.6
2023-01-06T00:25:05.921Z,6.6
2023-01-06T00:26:06.453Z,6.6
2023-01-06T00:27:05.727Z,6.7
2023-01-06T00:28:06.105Z,6
2023-01-06T00:29:06.298Z,6
2023-01-06T00:30:06.400Z,6.6
2023-01-06T00:31:06.002Z,6.7
2023-01-06T00:32:05.881Z,6.7
2023-01-06T00:33:05.749Z,6.7
2023-01-06T00:34:05.816Z,6.7
2023-01-06T00:35:06.163Z,6.7
2023-01-06T00:36:06.562Z,6.7
2023-01-06T00:37:06.647Z,6.7
2023-01-06T00:38:06.156Z,6.7
2023-01-06T00:39:05.998Z,6.6
2023-01-06T00:40:06.203Z,6.6
2023-01-06T00:41:06.323Z,6
2023-01-06T00:42:05.796Z,6.6
2023-01-06T00:43:05.436Z,6.6
2023-01-06T00:44:06.361Z,6.6
2023-01-06T00:45:06.346Z,6.6
2023-01-06T00:46:06.794Z,6.6
2023-01-06T00:47:06.317Z,6.6
2023-01-06T00:48:05.661Z,6.6
2023-01-06T00:49:11.010Z,6.6
2023-01-06T00:50:06.393Z,6.5
2023-01-06T00:51:06.210Z,6.5
2023-01-06T00:52:06.514Z,6.5
2023-01-06T00:53:06.110Z,6
2023-01-06T00:54:06.632Z,6
2023-01-06T00:55:05.707Z,6.5
2023-01-06T00:56:06.657Z,6.5
2023-01-06T00:57:06.179Z,6.5
2023-01-06T00:58:06.760Z,6.5
2023-01-06T00:59:05.877Z,6.5
2023-01-06T01:00:06.116Z,6.5
2023-01-06T01:01:05.145Z,6.5
2023-01-06T01:02:06.625Z,6.5
2023-01-06T01:03:06.524Z,6.5
2023-01-06T01:04:06.479Z,6.5
2023-01-06T01:05:05.850Z,6.5
2023-01-06T01:06:06.140Z,6.5
2023-01-06T01:07:06.256Z,6.5
2023-01-06T01:08:06.612Z,6.5
2023-01-06T01:09:05.261Z,6.4
2023-01-06T01:10:06.196Z,6.4
2023-01-06T01:11:07.438Z,6
2023-01-06T01:12:06.164Z,6.4
2023-01-06T01:13:06.603Z,6.4
2023-01-06T01:14:05.988Z,6.4
2023-01-06T01:15:06.029Z,6.4
2023-01-06T01:16:06.102Z,6
2023-01-06T01:17:06.707Z,6.4
2023-01-06T01:18:05.801Z,6
2023-01-06T01:19:06.464Z,6.4
2023-01-06T01:20:05.673Z,6.4
2023-01-06T01:21:06.004Z,6.4
2023-01-06T01:22:05.909Z,6.4
2023-01-06T01:23:05.916Z,6.4
2023-01-06T01:24:06.169Z,6.4
2023-01-06T01:25:06.370Z,6.4
2023-01-06T01:26:06.086Z,6.4
2023-01-06T01:27:06.053Z,6.4
2023-01-06T01:28:06.076Z,6.4
2023-01-06T01:29:06.211Z,6.3
2023-01-06T01:30:06.570Z,6.3
2023-01-06T01:31:06.381Z,6.3
2023-01-06T01:32:06.573Z,6.3
2023-01-06T01:33:06.607Z,6.3
2023-01-06T01:34:05.466Z,6.3
2023-01-06T01:35:05.940Z,6.3
2023-01-06T01:36:06.229Z,6.3
2023-01-06T01:37:06.514Z,6
2023-01-06T01:38:06.472Z,6.3
2023-01-06T01:39:06.733Z,6
2023-01-06T01:40:05.900Z,6
2023-01-06T01:41:04.994Z,6
2023-01-06T01:42:06.429Z,6
2023-01-06T01:43:06.603Z,6.3
2023-01-06T01:44:05.878Z,6.3
2023-01-06T01:45:05.848Z,6.2
2023-01-06T01:46:05.836Z,6.2
2023-01-06T01:47:05.315Z,6.2
2023-01-06T01:48:06.007Z,6.2
2023-01-06T01:49:06.701Z,6.2
2023-01-06T01:50:06.398Z,6.2
2023-01-06T01:51:06.000Z,6.2
2023-01-06T01:52:06.449Z,6.2
2023-01-06T01:53:06.090Z,6.2
2023-01-06T01:54:06.540Z,6.2
2023-01-06T01:55:05.902Z,6.2
2023-01-06T01:56:06.395Z,6.1
2023-01-06T01:57:06.448Z,6
2023-01-06T01:58:06.362Z,6.2
2023-01-06T01:59:05.865Z,6.2
2023-01-06T02:00:06.324Z,6.2
2023-01-06T02:01:05.947Z,6.2
2023-01-06T02:02:06.480Z,6.2
2023-01-06T02:03:06.213Z,6
2023-01-06T02:04:06.196Z,6.2
2023-01-06T02:05:06.296Z,6.2
2023-01-06T02:06:06.101Z,6.2
2023-01-06T02:07:06.450Z,6.2
2023-01-06T02:08:06.236Z,6.2
2023-01-06T02:09:06.096Z,6.2
2023-01-06T02:10:06.543Z,6.2
2023-01-06T02:11:05.719Z,6.2
2023-01-06T02:12:05.356Z,6.2
2023-01-06T02:13:05.901Z,6.2
2023-01-06T02:14:06.697Z,6
2023-01-06T02:15:05.750Z,6
2023-01-06T02:16:06.228Z,6.2
2023-01-06T02:17:05.989Z,6.2
2023-01-06T02:18:06.031Z,6.2
2023-01-06T02:19:06.501Z,6.2
2023-01-06T02:20:06.335Z,6.2
2023-01-06T02:21:06.027Z,6.2
2023-01-06T02:22:06.317Z,6.2
2023-01-06T02:23:05.865Z,6.2
2023-01-06T02:24:06.045Z,6.2
2023-01-06T02:25:05.011Z,6.2
2023-01-06T02:26:06.426Z,6.2
2023-01-06T02:27:06.108Z,6.2
2023-01-06T02:28:06.146Z,6.2
2023-01-06T02:29:06.417Z,6.2
2023-01-06T02:30:06.559Z,6.2
2023-01-06T02:31:06.317Z,6.1
2023-01-06T02:32:06.207Z,6.1
2023-01-06T02:33:06.061Z,6.1
2023-01-06T02:34:06.372Z,6
2023-01-06T02:35:06.536Z,6
2023-01-06T02:36:05.815Z,6
2023-01-06T02:37:05.045Z,6
2023-01-06T02:38:06.237Z,6
2023-01-06T02:39:06.295Z,6
2023-01-06T02:40:06.542Z,6
2023-01-06T02:41:06.088Z,6
2023-01-06T02:42:06.467Z,6
2023-01-06T02:43:06.093Z,6
2023-01-06T02:44:06.102Z,6
2023-01-06T02:45:06.646Z,6
2023-01-06T02:46:06.648Z,6
2023-01-06T02:47:06.324Z,6
2023-01-06T02:48:05.694Z,5
2023-01-06T02:49:06.635Z,6
2023-01-06T02:50:06.406Z,6
2023-01-06T02:51:06.352Z,6
2023-01-06T02:52:05.926Z,5.9
2023-01-06T02:53:06.398Z,5.9
2023-01-06T02:54:06.103Z,5.9
2023-01-06T02:55:06.516Z,5.9
2023-01-06T02:56:06.216Z,5.9
2023-01-06T02:57:06.589Z,5.9
2023-01-06T02:58:05.943Z,5.9
2023-01-06T02:59:06.437Z,5.8
2023-01-06T03:00:06.003Z,5.8
2023-01-06T03:01:04.978Z,5
2023-01-06T03:02:07.080Z,5.8
2023-01-06T03:03:05.783Z,5.8
2023-01-06T03:04:05.653Z,5.7
2023-01-06T03:05:06.380Z,5.7
2023-01-06T03:06:06.558Z,5.7
2023-01-06T03:07:05.983Z,5.7
2023-01-06T03:08:06.424Z,5.6
2023-01-06T03:09:06.245Z,5.6
2023-01-06T03:10:06.369Z,5.6
2023-01-06T03:11:05.873Z,5.6
2023-01-06T03:12:05.910Z,5.6
2023-01-06T03:13:06.360Z,5
2023-01-06T03:14:05.737Z,5.6
2023-01-06T03:15:05.754Z,5.6
2023-01-06T03:16:06.484Z,5.6
2023-01-06T03:17:06.771Z,5
2023-01-06T03:18:06.915Z,5.4
2023-01-06T03:19:06.290Z,5.4
2023-01-06T03:20:06.669Z,5.4
2023-01-06T03:21:05.892Z,5.3
2023-01-06T03:22:06.587Z,5.3
2023-01-06T03:23:06.356Z,5.2
2023-01-06T03:24:05.661Z,5.2
2023-01-06T03:25:06.208Z,5
2023-01-06T03:26:05.514Z,5.2
2023-01-06T03:27:06.413Z,5.2
2023-01-06T03:28:06.297Z,5.2
2023-01-06T03:29:05.824Z,5.2
2023-01-06T03:30:05.723Z,5.2
2023-01-06T03:31:06.360Z,5.2
2023-01-06T03:32:05.613Z,5.1
2023-01-06T03:33:07.607Z,5.1
2023-01-06T03:34:06.017Z,5.1
2023-01-06T03:35:06.389Z,5.1
2023-01-06T03:36:05.926Z,5.1
2023-01-06T03:37:05.261Z,5
2023-01-06T03:38:05.198Z,5
2023-01-06T03:39:06.112Z,5.1
2023-01-06T03:40:05.804Z,5.1
2023-01-06T03:41:06.282Z,5.1
2023-01-06T03:42:06.464Z,5.1
2023-01-06T03:43:06.044Z,5.1
2023-01-06T03:44:06.329Z,5
2023-01-06T03:45:06.247Z,5
2023-01-06T03:46:05.626Z,5
2023-01-06T03:47:06.088Z,5
2023-01-06T03:48:05.691Z,5
2023-01-06T03:49:05.850Z,5
2023-01-06T03:50:06.061Z,5
2023-01-06T03:51:06.158Z,5
2023-01-06T03:52:06.336Z,5
2023-01-06T03:53:05.816Z,5
2023-01-06T03:54:05.995Z,5
2023-01-06T03:55:06.319Z,4.9
2023-01-06T03:56:06.546Z,5
2023-01-06T03:57:05.869Z,4.8
2023-01-06T03:58:05.759Z,5
2023-01-06T03:59:06.358Z,4.8
2023-01-06T04:00:06.684Z,4.8
2023-01-06T04:01:06.176Z,4.8
2023-01-06T04:02:05.037Z,4.8
2023-01-06T04:03:04.944Z,4.8
2023-01-06T04:04:06.526Z,4.7
2023-01-06T04:05:06.045Z,4.7
2023-01-06T04:06:06.239Z,4.7
2023-01-06T04:07:06.287Z,4.7
2023-01-06T04:08:06.640Z,4.6
2023-01-06T04:09:06.508Z,4.6
2023-01-06T04:10:05.871Z,4.6
2023-01-06T04:11:06.451Z,4.6
2023-01-06T04:12:05.813Z,4
2023-01-06T04:13:06.257Z,4.6
2023-01-06T04:14:06.129Z,4.6
2023-01-06T04:15:06.466Z,4.6
2023-01-06T04:16:06.328Z,4.6
2023-01-06T04:17:06.047Z,4.5
2023-01-06T04:18:06.063Z,4.5
2023-01-06T04:19:05.589Z,4.5
2023-01-06T04:20:06.250Z,4.5
2023-01-06T04:21:06.366Z,4.5
2023-01-06T04:22:06.653Z,4.5
2023-01-06T04:23:05.805Z,4.5
2023-01-06T04:24:05.797Z,4.5
2023-01-06T04:25:06.043Z,4.5
2023-01-06T04:26:05.789Z,4.5
2023-01-06T04:27:05.620Z,4.4
2023-01-06T04:28:05.906Z,4.4
2023-01-06T04:29:06.456Z,4.4
2023-01-06T04:30:05.765Z,4.4
2023-01-06T04:31:06.460Z,4.4
2023-01-06T04:32:06.160Z,4.3
2023-01-06T04:33:06.275Z,4.3
2023-01-06T04:34:06.701Z,4.3
2023-01-06T04:35:05.842Z,3
2023-01-06T04:36:06.312Z,4.2
2023-01-06T04:37:06.087Z,4.2
2023-01-06T04:38:06.632Z,3
2023-01-06T04:39:05.987Z,4.2
2023-01-06T04:40:05.347Z,4.2
2023-01-06T04:41:06.866Z,4.2
2023-01-06T04:42:06.584Z,4.2
2023-01-06T04:43:06.768Z,4.1
2023-01-06T04:44:06.514Z,4.1
2023-01-06T04:45:06.014Z,4.1
2023-01-06T04:46:06.300Z,4.1
2023-01-06T04:47:06.407Z,3
2023-01-06T04:48:06.636Z,4
2023-01-06T04:49:05.836Z,4
2023-01-06T04:50:06.639Z,4
2023-01-06T04:51:05.566Z,4
2023-01-06T04:52:06.048Z,4
2023-01-06T04:53:06.077Z,4
2023-01-06T04:54:05.860Z,4
2023-01-06T04:55:06.324Z,4
2023-01-06T04:56:06.125Z,4.1
2023-01-06T04:57:05.968Z,4.1
2023-01-06T04:58:06.737Z,4.2
2023-01-06T04:59:06.208Z,3
2023-01-06T05:00:05.806Z,4.2
2023-01-06T05:01:06.945Z,4.2
2023-01-06T05:02:06.051Z,4.3
2023-01-06T05:03:06.211Z,4.3
2023-01-06T05:04:06.176Z,4.3
2023-01-06T05:05:05.126Z,4.3
2023-01-06T05:06:05.029Z,4.3
2023-01-06T05:07:06.649Z,4.4
2023-01-06T05:08:06.292Z,4.4
2023-01-06T05:09:06.612Z,4.4
2023-01-06T05:10:06.786Z,4.4
2023-01-06T05:11:04.992Z,4
2023-01-06T05:12:06.636Z,4
2023-01-06T05:13:05.831Z,4.4
2023-01-06T05:14:06.475Z,4
2023-01-06T05:15:05.998Z,4.4
2023-01-06T05:16:06.624Z,4.4
2023-01-06T05:17:06.376Z,4.4
2023-01-06T05:18:06.373Z,4.5
2023-01-06T05:19:06.390Z,4.5
2023-01-06T05:20:06.273Z,4.5
2023-01-06T05:21:06.632Z,4.5
2023-01-06T05:22:05.858Z,4.5
2023-01-06T05:23:06.215Z,4.5
2023-01-06T05:24:05.996Z,4.5
2023-01-06T05:25:06.478Z,4.5
2023-01-06T05:26:06.542Z,4.5
2023-01-06T05:27:06.273Z,4
2023-01-06T05:28:06.236Z,4.5
2023-01-06T05:29:05.898Z,4.5
2023-01-06T05:30:06.714Z,4.6
2023-01-06T05:31:06.358Z,4.6
2023-01-06T05:32:05.894Z,4.6
2023-01-06T05:33:06.362Z,4.6
2023-01-06T05:34:05.921Z,4.6
2023-01-06T05:35:06.490Z,4.6
2023-01-06T05:36:05.639Z,4.6
2023-01-06T05:37:06.101Z,4.6
2023-01-06T05:38:06.744Z,4.6
2023-01-06T05:39:05.864Z,4.6
2023-01-06T05:40:06.040Z,4.6
2023-01-06T05:41:05.844Z,4.6
2023-01-06T05:42:06.515Z,4.6
2023-01-06T05:43:05.850Z,4.6
2023-01-06T05:44:06.479Z,4.6
2023-01-06T05:45:06.621Z,4.6
2023-01-06T05:46:06.261Z,4.6
2023-01-06T05:47:05.819Z,4.6
2023-01-06T05:48:06.112Z,4.6
2023-01-06T05:49:06.014Z,4.7
2023-01-06T05:50:06.070Z,4.7
2023-01-06T05:51:06.397Z,4.7
2023-01-06T05:52:06.616Z,4.7
2023-01-06T05:53:06.115Z,4.7
2023-01-06T05:54:06.359Z,4.7
2023-01-06T05:55:06.606Z,4
2023-01-06T05:56:04.839Z,4.7
2023-01-06T05:57:06.198Z,4.7
2023-01-06T05:58:05.972Z,4.7
2023-01-06T05:59:06.529Z,4.7
2023-01-06T06:00:05.978Z,4.7
2023-01-06T06:01:06.647Z,4.8
2023-01-06T06:02:06.077Z,4.8
2023-01-06T06:03:06.270Z,4.8
2023-01-06T06:04:06.807Z,4.8
2023-01-06T06:05:05.821Z,4.8
2023-01-06T06:06:06.455Z,4.8
2023-01-06T06:07:06.366Z,5
2023-01-06T06:08:06.836Z,4.8
2023-01-06T06:09:05.661Z,5
2023-01-06T06:10:05.189Z,4.9
2023-01-06T06:11:06.236Z,4.9
2023-01-06T06:12:06.531Z,4.9
2023-01-06T06:13:04.808Z,4.9
2023-01-06T06:14:05.967Z,4.9
2023-01-06T06:15:05.620Z,4.9
2023-01-06T06:16:05.925Z,5
2023-01-06T06:17:06.104Z,5
2023-01-06T06:18:06.667Z,5
2023-01-06T06:19:05.167Z,5
2023-01-06T06:20:05.698Z,5.1
2023-01-06T06:21:06.553Z,5
2023-01-06T06:22:06.091Z,5.1
2023-01-06T06:23:06.649Z,5.1
2023-01-06T06:24:06.587Z,5.1
2023-01-06T06:25:06.378Z,5.2
2023-01-06T06:26:06.122Z,5.2
2023-01-06T06:27:06.484Z,5.2
2023-01-06T06:28:05.747Z,5.2
2023-01-06T06:29:05.923Z,5.2
2023-01-06T06:30:06.228Z,5.2
2023-01-06T06:31:05.043Z,5.2
2023-01-06T06:32:05.900Z,5.2
2023-01-06T06:33:05.065Z,5.2
2023-01-06T06:34:06.053Z,5
2023-01-06T06:35:06.402Z,5.2
2023-01-06T06:36:06.187Z,5.2
2023-01-06T06:37:06.316Z,5.2
2023-01-06T06:38:06.234Z,5.2
2023-01-06T06:39:06.548Z,5.3
2023-01-06T06:40:04.982Z,5.3
2023-01-06T06:41:06.685Z,5.3
2023-01-06T06:42:05.711Z,5.3
2023-01-06T06:43:05.952Z,5.3
2023-01-06T06:44:05.855Z,5.3
2023-01-06T06:45:05.185Z,5.3
2023-01-06T06:46:06.376Z,5.4
2023-01-06T06:47:05.963Z,5.3
2023-01-06T06:48:06.719Z,5
2023-01-06T06:49:05.844Z,5.4
2023-01-06T06:50:05.665Z,5.4
2023-01-06T06:51:06.270Z,5.4
2023-01-06T06:52:06.503Z,5.4
2023-01-06T06:53:06.761Z,5.4
2023-01-06T06:54:06.063Z,5.4
2023-01-06T06:55:06.333Z,5.4
2023-01-06T06:56:05.290Z,5
2023-01-06T06:57:06.563Z,5.4
2023-01-06T06:58:05.080Z,5.4
2023-01-06T06:59:06.219Z,5.4
2023-01-06T07:00:06.071Z,5.4
2023-01-06T07:01:04.938Z,5.4
2023-01-06T07:02:07.206Z,5.4
2023-01-06T07:03:06.573Z,5.4
2023-01-06T07:04:06.192Z,5.4
2023-01-06T07:05:06.455Z,5.4
2023-01-06T07:06:05.823Z,5.4
2023-01-06T07:07:06.073Z,5.4
2023-01-06T07:08:06.020Z,5.4
2023-01-06T07:09:05.571Z,5
2023-01-06T07:10:05.829Z,5.4
2023-01-06T07:11:05.846Z,5.4
2023-01-06T07:12:06.237Z,5.4
2023-01-06T07:13:09.123Z,5.4
2023-01-06T07:14:05.780Z,5.4
2023-01-06T07:15:05.874Z,5.4
2023-01-06T07:16:06.126Z,5.4
2023-01-06T07:17:05.789Z,5.4
2023-01-06T07:18:06.204Z,5.4
2023-01-06T07:19:05.958Z,5.4
2023-01-06T07:20:06.354Z,5
2023-01-06T07:21:06.544Z,5
2023-01-06T07:22:05.774Z,5.4
2023-01-06T07:23:06.029Z,5.4
2023-01-06T07:24:06.140Z,5.4
2023-01-06T07:25:06.394Z,5.4
2023-01-06T07:26:05.983Z,5.4
2023-01-06T07:27:06.353Z,5.4
2023-01-06T07:28:06.658Z,5.4
2023-01-06T07:29:06.207Z,5.4
2023-01-06T07:30:05.681Z,5.4
2023-01-06T07:31:06.734Z,5.4
2023-01-06T07:32:06.830Z,5.4
2023-01-06T07:33:05.741Z,5.4
2023-01-06T07:34:06.338Z,5.4
2023-01-06T07:35:05.710Z,5.4
2023-01-06T07:36:05.958Z,5.3
2023-01-06T07:37:06.247Z,5.3
2023-01-06T07:38:06.522Z,5.3
2023-01-06T07:39:05.797Z,5.3
2023-01-06T07:40:06.105Z,5.3
2023-01-06T07:41:05.806Z,5
2023-01-06T07:42:06.204Z,5.3
2023-01-06T07:43:06.126Z,5.2
2023-01-06T07:44:06.284Z,5
2023-01-06T07:45:05.734Z,5.2
2023-01-06T07:46:06.247Z,5.2
2023-01-06T07:47:06.236Z,5.3
2023-01-06T07:48:06.818Z,5.3
2023-01-06T07:49:05.811Z,5.3
2023-01-06T07:50:06.652Z,5.3
2023-01-06T07:51:06.706Z,5.3
2023-01-06T07:52:06.927Z,5.3
2023-01-06T07:53:06.384Z,5.3
2023-01-06T07:54:05.756Z,5.3
2023-01-06T07:55:05.861Z,5.3
2023-01-06T07:56:06.100Z,5
2023-01-06T07:57:06.377Z,5.4
2023-01-06T07:58:06.413Z,5.4
2023-01-06T07:59:06.389Z,5.4
2023-01-06T08:00:06.672Z,5.4
2023-01-06T08:01:05.824Z,5.4
2023-01-06T08:02:06.788Z,5.4
2023-01-06T08:03:06.420Z,5.4
2023-01-06T08:04:05.586Z,5.5
2023-01-06T08:05:06.172Z,5.4
2023-01-06T08:06:05.974Z,5.4
2023-01-06T08:07:05.906Z,5.4
2023-01-06T08:08:06.188Z,5.5
2023-01-06T08:09:06.208Z,5.5
2023-01-06T08:10:06.601Z,5.5
2023-01-06T08:11:05.889Z,5.5
2023-01-06T08:12:05.869Z,5.5
2023-01-06T08:13:06.557Z,5.4
2023-01-06T08:14:06.167Z,5.5
2023-01-06T08:15:06.474Z,5
2023-01-06T08:16:06.430Z,5
2023-01-06T08:17:06.593Z,5.6
2023-01-06T08:18:06.405Z,5.6
2023-01-06T08:19:05.929Z,5.5
2023-01-06T08:20:06.354Z,6
2023-01-06T08:21:06.538Z,5.6
2023-01-06T08:22:06.725Z,5.6
2023-01-06T08:23:06.593Z,5.6
2023-01-06T08:24:06.268Z,5.6
2023-01-06T08:25:06.388Z,5.6
2023-01-06T08:26:05.725Z,5.7
2023-01-06T08:27:06.275Z,5.7
2023-01-06T08:28:06.230Z,6
2023-01-06T08:29:05.105Z,5.8
2023-01-06T08:30:06.047Z,5.9
2023-01-06T08:31:05.797Z,6
2023-01-06T08:32:14.682Z,5.9
2023-01-06T08:33:05.999Z,5.9
2023-01-06T08:34:05.701Z,6
2023-01-06T08:35:06.698Z,6
2023-01-06T08:36:05.852Z,6.1
2023-01-06T08:37:06.332Z,6.2
2023-01-06T08:38:06.593Z,6.2
2023-01-06T08:39:05.835Z,6.3
2023-01-06T08:40:06.113Z,6.4
2023-01-06T08:41:05.107Z,6.4
2023-01-06T08:42:05.109Z,6
2023-01-06T08:43:06.390Z,6.6
2023-01-06T08:44:05.608Z,6.6
2023-01-06T08:45:06.364Z,6.7
2023-01-06T08:46:05.918Z,6.8
2023-01-06T08:47:05.652Z,6.8
2023-01-06T08:48:06.017Z,6.9
2023-01-06T08:49:06.403Z,6.9
2023-01-06T08:50:05.607Z,7
2023-01-06T08:51:05.999Z,7
2023-01-06T08:52:06.471Z,7
2023-01-06T08:53:05.763Z,7.2
2023-01-06T08:54:06.363Z,7
2023-01-06T08:55:06.309Z,7.2
2023-01-06T08:56:05.713Z,7
2023-01-06T08:57:05.172Z,7.4
2023-01-06T08:58:06.171Z,7.4
2023-01-06T08:59:05.793Z,7.5
2023-01-06T09:00:05.794Z,7.5
2023-01-06T09:01:06.459Z,7.6
2023-01-06T09:02:06.965Z,7.6
2023-01-06T09:03:05.838Z,7.6
2023-01-06T09:04:06.325Z,7.6
2023-01-06T09:05:06.495Z,7.7
2023-01-06T09:06:06.554Z,7.8
2023-01-06T09:07:05.835Z,7.9
2023-01-06T09:08:06.141Z,8
2023-01-06T09:09:06.464Z,8
2023-01-06T09:10:06.030Z,8
2023-01-06T09:11:06.492Z,8
2023-01-06T09:12:07.552Z,8.2
2023-01-06T09:13:05.583Z,8.2
2023-01-06T09:14:06.079Z,8.3
2023-01-06T09:15:06.637Z,8.3
2023-01-06T09:16:05.856Z,8.4
2023-01-06T09:17:06.366Z,8.4
2023-01-06T09:18:06.210Z,8.4
2023-01-06T09:19:05.576Z,8.6
2023-01-06T09:20:05.959Z,8.6
2023-01-06T09:21:06.291Z,8.6
2023-01-06T09:22:06.639Z,8.7
2023-01-06T09:23:06.398Z,8.8
2023-01-06T09:24:05.432Z,8.8
2023-01-06T09:25:05.499Z,8.9
2023-01-06T09:26:06.736Z,8.9
2023-01-06T09:27:05.906Z,9
2023-01-06T09:28:06.265Z,9
2023-01-06T09:29:06.560Z,9.1
2023-01-06T09:30:05.879Z,7
2023-01-06T09:31:05.977Z,7
2023-01-06T09:32:06.620Z,9.2
2023-01-06T09:33:06.099Z,9.4
2023-01-06T09:34:06.157Z,9.4
2023-01-06T09:35:06.201Z,9.4
2023-01-06T09:36:06.124Z,9.5
2023-01-06T09:37:05.291Z,9.5
2023-01-06T09:38:06.016Z,9.6
2023-01-06T09:39:04.938Z,9.7
2023-01-06T09:40:06.571Z,9.7
2023-01-06T09:41:06.400Z,9.8
2023-01-06T09:42:06.841Z,9.8
2023-01-06T09:43:05.580Z,9.9
2023-01-06T09:44:04.559Z,9.9
2023-01-06T09:45:05.774Z,9.9
2023-01-06T09:46:05.767Z,10
2023-01-06T09:47:06.323Z,10
2023-01-06T09:48:06.005Z,10
2023-01-06T09:49:05.900Z,10
2023-01-06T09:50:05.849Z,10
2023-01-06T09:51:06.344Z,10
2023-01-06T09:52:05.808Z,10.1
2023-01-06T09:53:06.189Z,8
2023-01-06T09:54:06.566Z,10.2
2023-01-06T09:55:05.826Z,10.2
2023-01-06T09:56:06.372Z,10.2
2023-01-06T09:57:05.765Z,10.2
2023-01-06T09:58:06.320Z,10.3
2023-01-06T09:59:06.309Z,10.3
2023-01-06T10:00:06.054Z,10.4
2023-01-06T10:01:06.116Z,10.4
2023-01-06T10:02:06.608Z,10.4
2023-01-06T10:03:06.299Z,10.4
2023-01-06T10:04:06.409Z,10.4
2023-01-06T10:05:06.443Z,10.4
2023-01-06T10:06:06.390Z,10.4
2023-01-06T10:07:06.002Z,10.4
2023-01-06T10:08:06.335Z,10.4
2023-01-06T10:09:05.774Z,10.5
2023-01-06T10:10:05.898Z,10.5
2023-01-06T10:11:06.234Z,10.5
2023-01-06T10:12:05.497Z,10.5
2023-01-06T10:13:04.735Z,10.6
2023-01-06T10:14:06.180Z,10.6
2023-01-06T10:15:05.747Z,10.6
2023-01-06T10:16:06.685Z,10.7
2023-01-06T10:17:06.056Z,10.7
2023-01-06T10:18:06.342Z,10.8
2023-01-06T10:19:06.495Z,10.8
2023-01-06T10:20:06.548Z,10.8
2023-01-06T10:21:06.221Z,10.8
2023-01-06T10:22:06.188Z,10.8
2023-01-06T10:23:06.455Z,10.8
2023-01-06T10:24:05.584Z,10.8
2023-01-06T10:25:05.593Z,10.8
2023-01-06T10:26:06.318Z,10.8
2023-01-06T10:27:07.509Z,10.9
2023-01-06T10:28:06.027Z,10.9
2023-01-06T10:29:06.526Z,10.9
2023-01-06T10:30:06.283Z,10.9
2023-01-06T10:31:06.838Z,9
2023-01-06T10:32:05.772Z,11.1
2023-01-06T10:33:06.144Z,11.1
2023-01-06T10:34:05.763Z,11.2
2023-01-06T10:35:06.141Z,11.2
2023-01-06T10:36:05.850Z,11.4
2023-01-06T10:37:05.355Z,11.4
2023-01-06T10:38:05.879Z,11.4
2023-01-06T10:39:05.686Z,11.4
2023-01-06T10:40:05.922Z,11.4
2023-01-06T10:41:06.541Z,11.4
2023-01-06T10:42:06.559Z,11.4
2023-01-06T10:43:06.390Z,11.4
2023-01-06T10:44:06.213Z,11.6
2023-01-06T10:45:05.744Z,11.6
2023-01-06T10:46:06.167Z,11.6
2023-01-06T10:47:06.194Z,11.6
2023-01-06T10:48:06.555Z,11.7
2023-01-06T10:49:05.777Z,11.8
2023-01-06T10:50:06.197Z,11.8
2023-01-06T10:51:05.687Z,11.9
2023-01-06T10:52:05.772Z,11.9
2023-01-06T10:53:06.035Z,12
2023-01-06T10:54:05.750Z,10
2023-01-06T10:55:06.646Z,12
2023-01-06T10:56:05.719Z,12.1
2023-01-06T10:57:06.503Z,12.1
2023-01-06T10:58:05.907Z,12.2
2023-01-06T10:59:06.177Z,12.2
2023-01-06T11:00:06.392Z,12.2
2023-01-06T11:01:06.613Z,12.3
2023-01-06T11:02:06.789Z,10
2023-01-06T11:03:35.398Z,12.3
2023-01-06T11:04:05.931Z,12.3
2023-01-06T11:05:04.974Z,12.4
2023-01-06T11:06:05.872Z,12.4
2023-01-06T11:07:06.917Z,12.4
2023-01-06T11:08:06.104Z,12.5
2023-01-06T11:09:06.047Z,12.6
2023-01-06T11:10:06.283Z,12.5
2023-01-06T11:11:06.058Z,9
2023-01-06T11:12:05.703Z,12.6
2023-01-06T11:13:06.101Z,12.7
2023-01-06T11:14:06.012Z,12.7
2023-01-06T11:15:06.512Z,12.7
2023-01-06T11:16:06.273Z,12.8
2023-01-06T11:17:06.184Z,12.8
2023-01-06T11:18:06.764Z,12.8
2023-01-06T11:19:05.843Z,12.8
2023-01-06T11:20:06.160Z,12.8
2023-01-06T11:21:06.364Z,12.9
2023-01-06T11:22:06.226Z,12.9
2023-01-06T11:23:06.243Z,13
2023-01-06T11:24:06.257Z,13
2023-01-06T11:25:06.867Z,13
2023-01-06T11:26:05.905Z,13
2023-01-06T11:27:06.056Z,13
2023-01-06T11:28:06.412Z,13.1
2023-01-06T11:29:06.643Z,13.1
2023-01-06T11:30:06.016Z,13
2023-01-06T11:31:05.241Z,13.1
2023-01-06T11:32:04.865Z,13.2
2023-01-06T11:33:05.809Z,13.2
2023-01-06T11:34:06.272Z,13.2
2023-01-06T11:35:06.199Z,13.2
2023-01-06T11:36:05.841Z,13.2
2023-01-06T11:37:06.257Z,13.2
2023-01-06T11:38:06.692Z,13.2
2023-01-06T11:39:06.025Z,13.3
2023-01-06T11:40:14.811Z,13.4
2023-01-06T11:41:05.943Z,13.4
2023-01-06T11:42:06.488Z,13.4
2023-01-06T11:43:05.993Z,13.4
2023-01-06T11:44:06.198Z,13.4
2023-01-06T11:45:06.745Z,13.4
2023-01-06T11:46:05.910Z,13.4
2023-01-06T11:47:05.170Z,13.4
2023-01-06T11:48:06.009Z,13.4
2023-01-06T11:49:05.937Z,13.5
2023-01-06T11:50:06.678Z,13.5
2023-01-06T11:51:06.679Z,11
2023-01-06T11:52:06.247Z,11
2023-01-06T11:53:05.652Z,13.6
2023-01-06T11:54:05.749Z,13.6
2023-01-06T11:55:06.052Z,13.6
2023-01-06T11:56:06.314Z,13.6
2023-01-06T11:57:05.501Z,13.6
2023-01-06T11:58:06.853Z,13.6
2023-01-06T11:59:06.454Z,13.6
2023-01-06T12:00:05.975Z,13.6
2023-01-06T12:01:08.557Z,13.6
2023-01-06T12:02:05.758Z,13.6
2023-01-06T12:03:05.988Z,13.6
2023-01-06T12:04:06.356Z,13.7
2023-01-06T12:05:05.880Z,13.7
2023-01-06T12:06:06.497Z,13.7
2023-01-06T12:07:06.043Z,13.8
2023-01-06T12:08:06.293Z,13.8
2023-01-06T12:09:06.484Z,13.9
2023-01-06T12:10:04.967Z,11
2023-01-06T12:11:06.533Z,13.8
2023-01-06T12:12:06.451Z,13.6
2023-01-06T12:13:05.875Z,13.6
2023-01-06T12:14:30.203Z,13.6
2023-01-06T12:15:07.752Z,13.5
2023-01-06T12:16:05.841Z,13.5
2023-01-06T12:17:06.962Z,13.3
2023-01-06T12:18:06.046Z,13.3
2023-01-06T12:19:06.381Z,13.3
2023-01-06T12:20:06.122Z,13.4
2023-01-06T12:21:05.954Z,13.4
2023-01-06T12:22:06.631Z,13.4
2023-01-06T12:23:06.282Z,13.3
2023-01-06T12:24:06.473Z,13.3
2023-01-06T12:25:04.711Z,13.3
2023-01-06T12:26:05.999Z,11
2023-01-06T12:27:05.666Z,11
2023-01-06T12:28:06.012Z,13.2
2023-01-06T12:29:06.435Z,13.2
2023-01-06T12:30:06.521Z,13.2
2023-01-06T12:31:06.031Z,13.1
2023-01-06T12:32:06.033Z,13.1
2023-01-06T12:33:06.299Z,13
2023-01-06T12:34:06.053Z,12.9
2023-01-06T12:35:04.968Z,12.8
2023-01-06T12:36:06.146Z,12.8
2023-01-06T12:37:06.631Z,12.8
2023-01-06T12:38:06.492Z,11
2023-01-06T12:39:06.327Z,11
2023-01-06T12:40:05.643Z,12.4
2023-01-06T12:41:06.175Z,12.3
2023-01-06T12:42:06.153Z,11
2023-01-06T12:43:06.597Z,12.3
2023-01-06T12:44:05.700Z,12.2
2023-01-06T12:45:05.312Z,12.1
2023-01-06T12:46:06.929Z,12
2023-01-06T12:47:04.815Z,12
2023-01-06T12:48:06.483Z,12
2023-01-06T12:49:06.405Z,12
2023-01-06T12:50:05.736Z,12
2023-01-06T12:51:06.611Z,11.9
2023-01-06T12:52:05.830Z,11.9
2023-01-06T12:53:22.083Z,11.8
2023-01-06T12:54:06.327Z,11.8
2023-01-06T12:55:06.629Z,11.8
2023-01-06T12:56:05.991Z,11.8
2023-01-06T12:57:05.295Z,11.8
2023-01-06T12:58:04.701Z,11.7
2023-01-06T12:59:05.700Z,11.7
2023-01-06T13:00:06.029Z,11.7
2023-01-06T13:01:06.592Z,11.7
2023-01-06T13:02:06.477Z,10
2023-01-06T13:03:05.742Z,11.6
2023-01-06T13:04:06.596Z,11.6
2023-01-06T13:05:06.171Z,11.6
2023-01-06T13:06:06.171Z,11.6
2023-01-06T13:07:06.323Z,11.6
2023-01-06T13:08:05.680Z,11.5
2023-01-06T13:09:08.353Z,11.5
2023-01-06T13:10:06.205Z,11.4
2023-01-06T13:11:06.408Z,11.5
2023-01-06T13:12:05.957Z,11.4
2023-01-06T13:13:06.042Z,11.3
2023-01-06T13:14:05.889Z,11.3
2023-01-06T13:15:05.891Z,11.2
2023-01-06T13:16:05.789Z,11.2
2023-01-06T13:17:06.231Z,11.2
2023-01-06T13:18:07.899Z,11.2
2023-01-06T13:19:06.161Z,11.2
2023-01-06T13:20:05.674Z,11.2
2023-01-06T13:21:05.897Z,11.1
2023-01-06T13:22:04.740Z,11.1
2023-01-06T13:23:06.202Z,11.1
2023-01-06T13:24:06.667Z,11
2023-01-06T13:25:06.158Z,11
2023-01-06T13:26:06.163Z,11.1
2023-01-06T13:27:06.533Z,11
2023-01-06T13:28:05.849Z,11
2023-01-06T13:29:05.785Z,11
2023-01-06T13:30:06.029Z,11
2023-01-06T13:31:05.842Z,10.9
2023-01-06T13:32:05.359Z,10.9
2023-01-06T13:33:07.772Z,10.9
2023-01-06T13:34:06.373Z,10.9
2023-01-06T13:35:06.699Z,10.8
2023-01-06T13:36:06.023Z,10.8
2023-01-06T13:37:06.485Z,10
2023-01-06T13:38:06.381Z,10
2023-01-06T13:39:05.754Z,10
2023-01-06T13:40:05.268Z,10.8
2023-01-06T13:41:06.225Z,10.7
2023-01-06T13:42:06.603Z,10.7
2023-01-06T13:43:05.957Z,10.7
2023-01-06T13:44:06.129Z,10.7
2023-01-06T13:45:06.314Z,10.6
2023-01-06T13:46:06.453Z,10.6
2023-01-06T13:47:06.742Z,10.6
2023-01-06T13:48:06.245Z,10.6